createdAt,value
2023-04-15T00:01:28.329Z,57.05
2023-04-15T00:03:56.156Z,57.28
2023-04-15T00:06:23.440Z,57.84
2023-04-15T00:08:51.065Z,58.62
2023-04-15T00:11:18.621Z,59.69
2023-04-15T00:13:45.975Z,60.61
2023-04-15T00:16:13.275Z,60.96
2023-04-15T00:18:40.402Z,61.61
2023-04-15T00:21:07.560Z,65.64
2023-04-15T00:23:34.490Z,68.78
2023-04-15T00:26:01.917Z,66.76
2023-04-15T00:28:28.993Z,64.60
2023-04-15T00:30:56.003Z,62.20
2023-04-15T00:33:22.996Z,60.57
2023-04-15T00:35:50.033Z,57.25
2023-04-15T00:38:16.950Z,54.63
2023-04-15T00:40:44.200Z,54.84
2023-04-15T00:43:11.270Z,55.48
2023-04-15T00:45:38.842Z,56.25
2023-04-15T00:48:06.371Z,57.20
2023-04-15T00:50:34.033Z,58.21
2023-04-15T00:53:01.481Z,58.94
2023-04-15T00:55:28.754Z,59.63
2023-04-15T00:57:57.982Z,60.62
2023-04-15T01:00:25.476Z,61.04
2023-04-15T01:02:52.733Z,61.47
2023-04-15T01:05:19.966Z,64.93
2023-04-15T01:07:48.954Z,68.88
2023-04-15T01:10:16.252Z,67.81
2023-04-15T01:12:43.657Z,65.34
2023-04-15T01:15:11.396Z,63.25
2023-04-15T01:17:39.624Z,61.83
2023-04-15T01:20:10.304Z,58.24
2023-04-15T01:22:37.379Z,55.05
2023-04-15T01:25:13.681Z,54.91
2023-04-15T01:27:42.671Z,55.57
2023-04-15T01:30:10.911Z,57.31
2023-04-15T01:32:38.506Z,58.48
2023-04-15T01:35:06.040Z,59.16
2023-04-15T01:37:33.466Z,59.73
2023-04-15T01:40:00.522Z,60.24
2023-04-15T01:42:28.200Z,60.97
2023-04-15T01:44:55.127Z,64.34
2023-04-15T01:47:22.164Z,69.73
2023-04-15T01:49:49.206Z,68.56
2023-04-15T01:52:16.059Z,66.17
2023-04-15T01:54:43.014Z,64.28
2023-04-15T01:57:10.341Z,62.40
2023-04-15T01:59:37.599Z,60.91
2023-04-15T02:02:05.928Z,57.46
2023-04-15T02:04:33.018Z,54.62
2023-04-15T02:07:00.287Z,55.05
2023-04-15T02:09:27.112Z,56.81
2023-04-15T02:11:54.685Z,58.32
2023-04-15T02:14:21.935Z,59.01
2023-04-15T02:16:48.808Z,59.62
2023-04-15T02:19:15.805Z,60.20
2023-04-15T02:21:42.655Z,60.98
2023-04-15T02:24:09.708Z,65.08
2023-04-15T02:26:36.523Z,69.80
2023-04-15T02:29:04.694Z,67.11
2023-04-15T02:31:34.387Z,63.88
2023-04-15T02:34:03.300Z,62.16
2023-04-15T02:36:32.014Z,60.81
2023-04-15T02:38:59.256Z,57.35
2023-04-15T02:41:28.660Z,54.19
2023-04-15T02:43:55.525Z,54.61
2023-04-15T02:46:23.329Z,55.17
2023-04-15T02:48:51.237Z,56.25
2023-04-15T02:51:20.598Z,57.24
2023-04-15T02:53:48.893Z,58.31
2023-04-15T02:56:17.557Z,59.42
2023-04-15T02:58:45.527Z,60.57
2023-04-15T03:01:12.478Z,61.33
2023-04-15T03:03:39.371Z,65.17
2023-04-15T03:06:07.268Z,70.47
2023-04-15T03:08:34.229Z,70.13
2023-04-15T03:11:02.906Z,68.36
2023-04-15T03:13:29.730Z,66.87
2023-04-15T03:15:56.638Z,65.24
2023-04-15T03:18:23.972Z,63.70
2023-04-15T03:20:50.977Z,62.09
2023-04-15T03:23:18.022Z,60.68
2023-04-15T03:25:45.581Z,57.50
2023-04-15T03:28:12.731Z,55.37
2023-04-15T03:30:39.668Z,55.98
2023-04-15T03:33:06.502Z,57.28
2023-04-15T03:35:33.348Z,58.31
2023-04-15T03:38:00.189Z,59.06
2023-04-15T03:40:27.457Z,59.69
2023-04-15T03:42:54.388Z,60.57
2023-04-15T03:45:21.524Z,64.16
2023-04-15T03:47:48.392Z,69.84
2023-04-15T03:50:15.952Z,69.20
2023-04-15T03:52:42.781Z,67.04
2023-04-15T03:55:10.216Z,64.82
2023-04-15T03:57:39.465Z,63.30
2023-04-15T04:00:12.257Z,62.10
2023-04-15T04:02:39.372Z,60.91
2023-04-15T04:05:06.700Z,58.04
2023-04-15T04:07:33.763Z,55.49
2023-04-15T04:10:00.690Z,55.78
2023-04-15T04:12:27.630Z,57.11
2023-04-15T04:14:54.558Z,58.40
2023-04-15T04:17:21.442Z,59.94
2023-04-15T04:19:48.348Z,63.76
2023-04-15T04:22:15.194Z,69.00
2023-04-15T04:24:42.149Z,69.43
2023-04-15T04:27:09.078Z,67.86
2023-04-15T04:29:36.419Z,66.56
2023-04-15T04:32:03.331Z,64.89
2023-04-15T04:34:30.518Z,63.54
2023-04-15T04:36:57.362Z,62.65
2023-04-15T04:39:24.295Z,61.65
2023-04-15T04:41:52.740Z,60.82
2023-04-15T04:44:19.612Z,60.14
2023-04-15T04:46:46.566Z,57.67
2023-04-15T04:49:13.367Z,55.46
2023-04-15T04:51:40.246Z,55.85
2023-04-15T04:54:07.499Z,56.92
2023-04-15T04:56:35.052Z,57.80
2023-04-15T04:59:02.368Z,58.94
2023-04-15T05:01:29.641Z,60.22
2023-04-15T05:03:56.821Z,64.57
2023-04-15T05:06:23.949Z,70.08
2023-04-15T05:08:50.909Z,69.81
2023-04-15T05:11:18.030Z,67.22
2023-04-15T05:13:45.314Z,64.86
2023-04-15T05:16:12.819Z,63.22
2023-04-15T05:18:41.275Z,61.85
2023-04-15T05:21:08.585Z,60.47
2023-04-15T05:23:35.828Z,58.03
2023-04-15T05:26:02.989Z,55.63
2023-04-15T05:28:30.229Z,56.67
2023-04-15T05:30:57.612Z,58.41
2023-04-15T05:33:24.756Z,59.73
2023-04-15T05:35:52.175Z,60.65
2023-04-15T05:38:19.543Z,65.39
2023-04-15T05:40:46.985Z,69.98
2023-04-15T05:43:13.934Z,68.82
2023-04-15T05:45:40.770Z,66.66
2023-04-15T05:48:08.019Z,63.45
2023-04-15T05:50:34.976Z,61.98
2023-04-15T05:53:02.775Z,60.50
2023-04-15T05:55:29.772Z,56.93
2023-04-15T05:57:56.919Z,54.85
2023-04-15T06:00:23.750Z,54.82
2023-04-15T06:02:51.062Z,55.72
2023-04-15T06:05:18.573Z,56.39
2023-04-15T06:07:47.330Z,57.22
2023-04-15T06:10:15.832Z,57.17
2023-04-15T06:12:42.657Z,57.49
2023-04-15T06:15:13.194Z,58.09
2023-04-15T06:17:40.332Z,58.59
2023-04-15T06:20:08.950Z,58.08
2023-04-15T06:22:38.546Z,58.96
2023-04-15T06:25:08.406Z,60.26
2023-04-15T06:27:35.280Z,60.39
2023-04-15T06:30:02.231Z,60.92
2023-04-15T06:32:29.210Z,59.97
2023-04-15T06:34:57.029Z,59.43
2023-04-15T06:37:26.382Z,58.48
2023-04-15T06:39:55.225Z,58.33
2023-04-15T06:42:24.201Z,59.32
2023-04-15T06:44:51.508Z,59.08
2023-04-15T06:47:18.652Z,58.82
2023-04-15T06:49:45.746Z,57.33
2023-04-15T06:52:13.408Z,58.60
2023-04-15T06:54:41.822Z,57.65
2023-04-15T06:57:12.321Z,57.72
2023-04-15T06:59:42.120Z,58.73
2023-04-15T07:02:12.810Z,58.90
2023-04-15T07:04:40.956Z,56.47
2023-04-15T07:07:08.407Z,55.80
2023-04-15T07:09:35.645Z,56.91
2023-04-15T07:12:02.676Z,56.91
2023-04-15T07:14:30.041Z,55.95
2023-04-15T07:16:58.052Z,55.77
2023-04-15T07:19:25.027Z,56.86
2023-04-15T07:21:52.021Z,54.45
2023-04-15T07:24:20.459Z,54.53
2023-04-15T07:26:47.599Z,54.75
2023-04-15T07:29:14.886Z,54.29
2023-04-15T07:31:42.611Z,53.75
2023-04-15T07:34:09.568Z,53.22
2023-04-15T07:36:37.288Z,52.82
2023-04-15T07:39:05.013Z,52.52
2023-04-15T07:41:32.327Z,52.19
2023-04-15T07:43:59.910Z,52.21
2023-04-15T07:46:27.817Z,51.44
2023-04-15T07:48:54.798Z,52.77
2023-04-15T07:51:21.945Z,51.21
2023-04-15T07:53:50.816Z,50.80
2023-04-15T07:56:18.412Z,49.57
2023-04-15T07:58:45.338Z,49.80
2023-04-15T08:01:12.988Z,49.92
2023-04-15T08:03:40.147Z,49.46
2023-04-15T08:06:07.399Z,49.99
2023-04-15T08:08:34.441Z,50.22
2023-04-15T08:11:01.693Z,50.20
2023-04-15T08:13:29.170Z,49.99
2023-04-15T08:16:19.172Z,49.81
2023-04-15T08:18:50.087Z,50.35
2023-04-15T08:21:19.010Z,48.61
2023-04-15T08:23:47.936Z,49.96
2023-04-15T08:26:14.886Z,50.26
2023-04-15T08:28:43.193Z,49.20
2023-04-15T08:31:10.865Z,48.88
2023-04-15T08:33:37.892Z,47.70
2023-04-15T08:36:06.337Z,48.97
2023-04-15T08:38:33.807Z,48.68
2023-04-15T08:41:07.736Z,47.89
2023-04-15T08:43:37.148Z,48.55
2023-04-15T08:46:05.831Z,48.54
2023-04-15T08:48:39.501Z,47.70
2023-04-15T08:51:08.071Z,47.56
2023-04-15T08:53:35.836Z,46.03
2023-04-15T08:56:06.186Z,48.02
2023-04-15T08:58:34.048Z,47.76
2023-04-15T09:01:02.116Z,46.62
2023-04-15T09:03:29.519Z,46.27
2023-04-15T09:05:57.820Z,46.43
2023-04-15T09:08:25.117Z,46.63
2023-04-15T09:10:52.513Z,46.55
2023-04-15T09:13:19.688Z,46.84
2023-04-15T09:15:47.025Z,44.91
2023-04-15T09:18:27.091Z,43.74
2023-04-15T09:20:54.312Z,43.83
2023-04-15T09:23:21.492Z,44.72
2023-04-15T09:25:49.977Z,44.49
2023-04-15T09:28:26.026Z,44.91
2023-04-15T09:30:58.026Z,44.72
2023-04-15T09:33:27.461Z,42.73
2023-04-15T09:36:05.853Z,43.13
2023-04-15T09:38:34.244Z,42.41
2023-04-15T09:41:01.532Z,43.86
2023-04-15T09:43:42.171Z,42.81
2023-04-15T09:46:09.010Z,42.73
2023-04-15T09:48:37.206Z,44.28
2023-04-15T09:51:04.532Z,41.88
2023-04-15T09:53:34.501Z,40.35
2023-04-15T09:56:02.854Z,40.23
2023-04-15T09:58:32.057Z,38.75
2023-04-15T10:01:00.730Z,40.76
2023-04-15T10:03:34.828Z,41.04
2023-04-15T10:06:05.878Z,40.10
2023-04-15T10:08:35.180Z,41.05
2023-04-15T10:11:02.803Z,40.41
2023-04-15T10:13:35.812Z,39.01
2023-04-15T10:16:15.977Z,39.48
2023-04-15T10:18:48.544Z,39.43
2023-04-15T10:21:18.996Z,38.73
2023-04-15T10:23:47.955Z,38.83
2023-04-15T10:26:17.792Z,39.02
2023-04-15T10:28:47.577Z,39.02
2023-04-15T10:31:16.237Z,40.20
2023-04-15T10:33:46.288Z,40.55
2023-04-15T10:36:14.451Z,40.85
2023-04-15T10:38:46.965Z,40.87
2023-04-15T10:41:14.953Z,41.27
2023-04-15T10:43:51.807Z,41.22
2023-04-15T10:46:44.508Z,41.56
2023-04-15T10:49:17.365Z,41.12
2023-04-15T10:51:53.684Z,41.00
2023-04-15T10:54:27.059Z,41.03
2023-04-15T10:57:09.220Z,41.41
2023-04-15T11:00:05.498Z,41.86
2023-04-15T11:02:49.241Z,41.53
2023-04-15T11:05:18.405Z,41.64
2023-04-15T11:07:47.130Z,41.54
2023-04-15T11:10:14.007Z,41.49
2023-04-15T11:12:42.288Z,41.05
2023-04-15T11:15:35.216Z,41.32
2023-04-15T11:18:25.534Z,41.51
2023-04-15T11:21:00.758Z,41.19
2023-04-15T11:23:29.362Z,41.76
2023-04-15T11:25:58.251Z,41.55
2023-04-15T11:28:30.191Z,41.56
2023-04-15T11:30:58.253Z,41.33
2023-04-15T11:33:26.332Z,41.32
2023-04-15T11:35:55.393Z,41.15
2023-04-15T11:38:22.876Z,40.08
2023-04-15T11:40:52.080Z,40.05
2023-04-15T11:43:23.924Z,40.24
2023-04-15T11:45:53.911Z,40.70
2023-04-15T11:48:29.282Z,41.03
2023-04-15T11:50:58.250Z,41.03
2023-04-15T11:53:36.083Z,40.62
2023-04-15T11:56:03.138Z,40.92
2023-04-15T11:58:30.560Z,40.46
2023-04-15T12:01:00.420Z,40.15
2023-04-15T12:03:32.457Z,39.81
2023-04-15T12:06:19.531Z,40.75
2023-04-15T12:08:55.952Z,39.68
2023-04-15T12:11:32.619Z,38.16
2023-04-15T12:14:08.639Z,36.81
2023-04-15T12:16:49.121Z,35.83
2023-04-15T12:19:23.242Z,37.07
2023-04-15T12:21:51.246Z,36.51
2023-04-15T12:24:22.555Z,35.21
2023-04-15T12:26:55.328Z,35.09
2023-04-15T12:29:27.092Z,36.27
2023-04-15T12:31:56.287Z,36.09
2023-04-15T12:34:29.725Z,34.84
2023-04-15T12:36:58.233Z,32.02
2023-04-15T12:39:30.932Z,31.97
2023-04-15T12:41:59.098Z,30.74
2023-04-15T12:44:27.539Z,31.08
2023-04-15T12:46:55.170Z,30.42
2023-04-15T12:49:23.450Z,33.08
2023-04-15T12:51:53.211Z,31.49
2023-04-15T12:54:21.088Z,31.77
2023-04-15T12:56:50.163Z,29.59
2023-04-15T12:59:21.507Z,31.63
2023-04-15T13:01:49.330Z,31.79
2023-04-15T13:04:17.598Z,31.84
2023-04-15T13:06:44.814Z,31.10
2023-04-15T13:09:11.873Z,30.92
2023-04-15T13:11:38.923Z,30.77
2023-04-15T13:14:07.934Z,30.23
2023-04-15T13:16:35.382Z,30.03
2023-04-15T13:19:04.526Z,31.15
2023-04-15T13:21:35.992Z,31.40
2023-04-15T13:24:05.259Z,31.63
2023-04-15T13:26:32.556Z,32.48
2023-04-15T13:29:00.171Z,32.59
2023-04-15T13:31:27.688Z,32.70
2023-04-15T13:33:55.239Z,32.70
2023-04-15T13:36:22.375Z,32.70
2023-04-15T13:38:51.173Z,32.92
2023-04-15T13:41:18.994Z,32.72
2023-04-15T13:43:45.931Z,33.70
2023-04-15T13:46:13.176Z,33.50
2023-04-15T13:48:40.547Z,33.37
2023-04-15T13:51:07.719Z,34.57
2023-04-15T13:53:38.877Z,34.10
2023-04-15T13:56:09.474Z,33.91
2023-04-15T13:58:38.035Z,33.93
2023-04-15T14:01:07.291Z,34.46
2023-04-15T14:03:38.301Z,34.32
2023-04-15T14:06:06.683Z,35.22
2023-04-15T14:08:34.301Z,35.35
2023-04-15T14:11:01.557Z,34.07
2023-04-15T14:13:28.510Z,34.40
2023-04-15T14:15:57.108Z,34.14
2023-04-15T14:18:24.230Z,34.05
2023-04-15T14:20:51.163Z,34.21
2023-04-15T14:23:18.356Z,34.41
2023-04-15T14:25:53.040Z,34.44
2023-04-15T14:28:20.372Z,34.52
2023-04-15T14:30:47.665Z,34.90
2023-04-15T14:33:14.580Z,35.27
2023-04-15T14:35:42.286Z,35.96
2023-04-15T14:38:11.645Z,37.39
2023-04-15T14:40:39.356Z,39.07
2023-04-15T14:43:06.623Z,41.01
2023-04-15T14:45:33.638Z,41.56
2023-04-15T14:48:00.871Z,42.71
2023-04-15T14:50:28.507Z,43.29
2023-04-15T14:52:56.450Z,44.51
2023-04-15T14:55:23.756Z,44.96
2023-04-15T14:57:51.646Z,45.09
2023-04-15T15:00:19.808Z,44.63
2023-04-15T15:02:50.404Z,44.94
2023-04-15T15:05:18.482Z,44.56
2023-04-15T15:07:45.773Z,45.00
2023-04-15T15:10:12.967Z,45.25
2023-04-15T15:12:40.336Z,45.28
2023-04-15T15:15:19.329Z,45.53
2023-04-15T15:17:55.942Z,45.26
2023-04-15T15:20:24.792Z,46.44
2023-04-15T15:22:52.455Z,48.41
2023-04-15T15:25:19.851Z,50.71
2023-04-15T15:27:47.570Z,51.31
2023-04-15T15:30:14.738Z,53.38
2023-04-15T15:32:43.080Z,55.90
2023-04-15T15:35:11.629Z,56.21
2023-04-15T15:37:38.843Z,58.55
2023-04-15T15:40:07.100Z,59.89
2023-04-15T15:42:34.824Z,60.45
2023-04-15T15:45:04.483Z,59.87
2023-04-15T15:47:31.554Z,60.43
2023-04-15T15:49:58.778Z,64.49
2023-04-15T15:52:26.012Z,71.26
2023-04-15T15:54:53.268Z,71.20
2023-04-15T15:57:20.404Z,70.23
2023-04-15T15:59:47.767Z,68.70
2023-04-15T16:02:15.097Z,66.25
2023-04-15T16:04:43.571Z,65.16
2023-04-15T16:07:15.951Z,63.91
2023-04-15T16:09:44.034Z,63.67
2023-04-15T16:12:11.176Z,62.59
2023-04-15T16:14:38.313Z,61.34
2023-04-15T16:17:05.051Z,59.89
2023-04-15T16:19:31.944Z,55.93
2023-04-15T16:22:01.571Z,54.85
2023-04-15T16:24:29.613Z,55.38
2023-04-15T16:26:59.821Z,56.69
2023-04-15T16:29:27.048Z,58.70
2023-04-15T16:31:56.204Z,57.32
2023-04-15T16:34:23.856Z,58.65
2023-04-15T16:36:51.243Z,60.84
2023-04-15T16:39:18.405Z,59.95
2023-04-15T16:41:46.164Z,63.42
2023-04-15T16:44:13.400Z,65.25
2023-04-15T16:46:41.121Z,66.33
2023-04-15T16:49:08.560Z,66.29
2023-04-15T16:51:35.878Z,63.71
2023-04-15T16:54:03.271Z,57.26
2023-04-15T16:56:30.272Z,55.57
2023-04-15T16:58:57.413Z,55.75
2023-04-15T17:01:24.688Z,55.95
2023-04-15T17:03:54.030Z,56.61
2023-04-15T17:06:23.394Z,57.45
2023-04-15T17:08:50.755Z,59.00
2023-04-15T17:11:17.754Z,60.06
2023-04-15T17:13:44.807Z,60.71
2023-04-15T17:16:12.109Z,64.30
2023-04-15T17:18:39.233Z,69.93
2023-04-15T17:21:06.453Z,69.91
2023-04-15T17:23:33.369Z,66.64
2023-04-15T17:26:00.265Z,64.10
2023-04-15T17:28:27.996Z,62.16
2023-04-15T17:30:55.415Z,61.16
2023-04-15T17:33:55.708Z,60.18
2023-04-15T17:36:09.628Z,56.84
2023-04-15T17:38:36.483Z,55.16
2023-04-15T17:41:03.909Z,55.89
2023-04-15T17:43:32.389Z,58.10
2023-04-15T17:45:59.528Z,59.99
2023-04-15T17:48:26.907Z,63.07
2023-04-15T17:50:53.896Z,66.28
2023-04-15T17:53:20.874Z,65.27
2023-04-15T17:55:47.935Z,62.70
2023-04-15T17:58:14.866Z,62.44
2023-04-15T18:00:42.048Z,60.53
2023-04-15T18:03:09.217Z,60.94
2023-04-15T18:05:36.315Z,62.05
2023-04-15T18:08:03.456Z,62.29
2023-04-15T18:10:30.397Z,59.97
2023-04-15T18:12:57.647Z,57.79
2023-04-15T18:15:24.798Z,58.48
2023-04-15T18:17:52.049Z,59.59
2023-04-15T18:20:19.394Z,63.93
2023-04-15T18:22:46.705Z,68.63
2023-04-15T18:25:13.897Z,68.24
2023-04-15T18:27:41.077Z,66.06
2023-04-15T18:30:10.316Z,63.93
2023-04-15T18:32:38.077Z,63.02
2023-04-15T18:35:06.577Z,61.33
2023-04-15T18:37:33.778Z,60.58
2023-04-15T18:40:01.581Z,60.14
2023-04-15T18:42:28.642Z,58.27
2023-04-15T18:44:55.686Z,57.64
2023-04-15T18:47:23.831Z,58.51
2023-04-15T18:49:52.540Z,59.16
2023-04-15T18:52:19.616Z,59.97
2023-04-15T18:54:46.853Z,61.08
2023-04-15T18:57:14.095Z,64.93
2023-04-15T18:59:47.523Z,67.60
2023-04-15T19:02:14.688Z,68.18
2023-04-15T19:04:41.818Z,65.28
2023-04-15T19:07:10.055Z,63.75
2023-04-15T19:09:37.411Z,64.85
2023-04-15T19:12:04.462Z,63.57
2023-04-15T19:14:31.614Z,62.44
2023-04-15T19:16:59.084Z,61.81
2023-04-15T19:19:26.825Z,60.80
2023-04-15T19:21:54.606Z,60.58
2023-04-15T19:24:22.064Z,61.48
2023-04-15T19:26:51.540Z,61.25
2023-04-15T19:29:18.842Z,61.94
2023-04-15T19:31:46.006Z,61.75
2023-04-15T19:34:13.533Z,61.11
2023-04-15T19:36:41.321Z,60.39
2023-04-15T19:39:09.230Z,59.99
2023-04-15T19:41:36.563Z,58.02
2023-04-15T19:44:05.073Z,57.06
2023-04-15T19:46:32.678Z,58.39
2023-04-15T19:49:00.261Z,60.11
2023-04-15T19:51:28.722Z,63.92
2023-04-15T19:53:57.031Z,67.26
2023-04-15T19:56:24.643Z,66.31
2023-04-15T19:58:53.156Z,64.98
2023-04-15T20:01:21.015Z,63.24
2023-04-15T20:03:48.455Z,61.90
2023-04-15T20:06:16.275Z,60.76
2023-04-15T20:08:43.287Z,60.29
2023-04-15T20:11:10.599Z,57.58
2023-04-15T20:13:37.593Z,56.56
2023-04-15T20:16:08.006Z,57.43
2023-04-15T20:18:35.079Z,59.15
2023-04-15T20:21:02.111Z,60.99
2023-04-15T20:23:29.140Z,65.46
2023-04-15T20:25:56.402Z,69.27
2023-04-15T20:28:26.332Z,69.39
2023-04-15T20:30:54.016Z,67.77
2023-04-15T20:33:22.632Z,66.15
2023-04-15T20:35:49.569Z,64.57
2023-04-15T20:38:16.838Z,63.58
2023-04-15T20:40:43.917Z,62.80
2023-04-15T20:43:10.765Z,62.10
2023-04-15T20:45:39.255Z,61.29
2023-04-15T20:48:06.698Z,60.82
2023-04-15T20:50:33.627Z,60.27
2023-04-15T20:53:00.719Z,58.23
2023-04-15T20:55:28.992Z,56.93
2023-04-15T20:57:59.174Z,58.14
2023-04-15T21:00:26.359Z,59.35
2023-04-15T21:02:53.418Z,60.48
2023-04-15T21:05:20.444Z,64.05
2023-04-15T21:07:47.346Z,68.04
2023-04-15T21:10:14.211Z,66.65
2023-04-15T21:12:41.446Z,64.91
2023-04-15T21:15:09.367Z,63.61
2023-04-15T21:17:36.220Z,62.68
2023-04-15T21:20:03.641Z,61.75
2023-04-15T21:22:30.465Z,61.06
2023-04-15T21:24:57.654Z,60.47
2023-04-15T21:27:26.316Z,60.37
2023-04-15T21:29:53.167Z,59.98
2023-04-15T21:32:20.001Z,57.66
2023-04-15T21:34:46.972Z,55.83
2023-04-15T21:37:13.773Z,57.06
2023-04-15T21:39:40.884Z,58.76
2023-04-15T21:42:07.847Z,59.71
2023-04-15T21:44:34.752Z,60.49
2023-04-15T21:47:02.322Z,64.00
2023-04-15T21:49:29.618Z,68.39
2023-04-15T21:52:01.331Z,68.01
2023-04-15T21:54:28.716Z,66.57
2023-04-15T21:56:55.524Z,64.54
2023-04-15T21:59:22.267Z,63.56
2023-04-15T22:01:49.305Z,63.11
2023-04-15T22:04:16.699Z,62.25
2023-04-15T22:06:43.671Z,61.24
2023-04-15T22:09:16.414Z,60.64
2023-04-15T22:11:43.624Z,60.39
2023-04-15T22:14:10.951Z,59.67
2023-04-15T22:16:38.274Z,57.28
2023-04-15T22:19:05.918Z,55.99
2023-04-15T22:21:32.958Z,56.47
2023-04-15T22:24:33.924Z,57.36
2023-04-15T22:26:46.960Z,58.58
2023-04-15T22:29:13.798Z,60.32
2023-04-15T22:31:40.976Z,63.75
2023-04-15T22:34:08.783Z,69.23
2023-04-15T22:36:35.761Z,69.49
2023-04-15T22:39:03.560Z,67.58
2023-04-15T22:41:31.480Z,65.58
2023-04-15T22:43:59.044Z,63.96
2023-04-15T22:46:26.457Z,62.66
2023-04-15T22:48:54.805Z,61.38
2023-04-15T22:51:24.236Z,60.30
2023-04-15T22:53:51.910Z,59.96
2023-04-15T22:56:21.263Z,57.49
2023-04-15T22:58:49.399Z,55.87
2023-04-15T23:01:18.307Z,57.29
2023-04-15T23:03:56.719Z,58.87
2023-04-15T23:06:30.112Z,59.11
2023-04-15T23:08:57.582Z,60.15
2023-04-15T23:11:25.195Z,64.09
2023-04-15T23:13:54.409Z,69.51
2023-04-15T23:16:24.708Z,67.27
2023-04-15T23:18:51.680Z,64.66
2023-04-15T23:21:18.517Z,63.53
2023-04-15T23:23:45.663Z,63.03
2023-04-15T23:26:12.600Z,62.20
2023-04-15T23:28:39.462Z,61.60
2023-04-15T23:31:07.243Z,61.28
2023-04-15T23:33:34.294Z,60.50
2023-04-15T23:36:01.608Z,59.63
2023-04-15T23:38:28.460Z,57.13
2023-04-15T23:40:55.608Z,56.38
2023-04-15T23:43:22.785Z,57.47
2023-04-15T23:45:50.129Z,58.95
2023-04-15T23:48:17.240Z,60.61
2023-04-15T23:50:44.204Z,63.43
2023-04-15T23:53:11.334Z,66.78
2023-04-15T23:55:38.275Z,66.91
2023-04-15T23:58:05.114Z,65.66
